Time;durP1;ratioP1;P1;durP2;ratioP2;P2;SDS_P1;SDS_P2;PMS_P1;PMS_P2;Temp;Humidity;BMP_temperature;BMP_pressure;BME280_temperature;BME280_humidity;BME280_pressure;Samples;Min_cycle;Max_cycle;Signal;HPM_P1;HPM_P2
2022/02/05 00:02:21;;;;;;;4.93;4.00;;;;;;;-2.85;74.24;96629.28;5097266;28;20055;-63
2022/02/05 00:04:48;;;;;;;5.70;3.72;;;;;;;-2.88;74.19;96621.56;5097404;28;20032;-63
2022/02/05 00:07:14;;;;;;;4.40;3.08;;;;;;;-2.89;74.16;96630.09;5097103;28;20024;-61
2022/02/05 00:12:30;;;;;;;5.18;3.95;;;;;;;-2.85;73.44;96624.16;5097037;28;20059;-63
2022/02/05 00:15:15;;;;;;;5.78;3.20;;;;;;;-2.88;73.07;96619.88;5096982;28;20474;-63
2022/02/05 00:33:04;;;;;;;5.53;4.20;;;;;;;-2.88;72.54;96619.00;5097145;28;20093;-61
2022/02/05 00:43:56;;;;;;;5.60;3.88;;;;;;;-3.66;73.26;96604.84;5096385;28;20097;-63
2022/02/05 00:46:24;;;;;;;5.70;3.95;;;;;;;-3.72;73.14;96601.34;5096332;28;20032;-61
2022/02/05 00:48:49;;;;;;;6.35;3.97;;;;;;;-3.73;73.50;96606.44;5096272;28;20363;-61
2022/02/05 00:51:21;;;;;;;5.38;3.70;;;;;;;-3.69;73.73;96595.41;5096117;28;20073;-63
2022/02/05 00:53:57;;;;;;;9.95;4.18;;;;;;;-3.64;73.46;96601.50;5096365;28;20054;-61
2022/02/05 00:56:36;;;;;;;3.88;3.17;;;;;;;-3.58;73.04;96600.75;5096197;28;20359;-61
2022/02/05 00:59:02;;;;;;;4.95;3.92;;;;;;;-3.61;73.07;96600.69;5094820;28;20043;-61
2022/02/05 01:01:28;;;;;;;8.27;4.43;;;;;;;-3.62;73.03;96601.50;5096140;28;20024;-61
2022/02/05 01:03:53;;;;;;;5.55;4.55;;;;;;;-3.57;72.90;96602.47;5096116;28;20032;-63
2022/02/05 01:06:19;;;;;;;5.75;3.70;;;;;;;-3.61;72.78;96601.53;5095917;28;20023;-62
2022/02/05 01:08:45;;;;;;;5.47;3.70;;;;;;;-3.64;72.53;96603.19;5095891;28;20466;-64
2022/02/05 01:11:11;;;;;;;5.70;4.00;;;;;;;-3.72;72.68;96603.03;5095740;28;20028;-61
2022/02/05 01:13:37;;;;;;;5.47;3.78;;;;;;;-3.72;72.66;96597.91;5095735;28;20024;-63
2022/02/05 01:16:30;;;;;;;7.78;3.90;;;;;;;-3.81;72.74;96599.47;5095755;28;21267;-61
2022/02/05 01:18:51;;;;;;;7.60;3.75;;;;;;;-4.01;73.41;96593.09;5095672;28;20470;-62
2022/02/05 01:23:50;;;;;;;8.27;4.20;;;;;;;-4.07;73.62;96606.59;5095617;28;20031;-63
2022/02/05 01:28:48;;;;;;;7.18;4.00;;;;;;;-4.25;74.08;96596.88;5095663;28;20031;-61
2022/02/05 01:31:14;;;;;;;7.07;4.10;;;;;;;-4.23;74.30;96593.50;5095456;28;20032;-64
2022/02/05 01:57:53;;;;;;;5.25;4.38;;;;;;;-4.18;74.06;96562.94;5095106;28;20047;-62
2022/02/05 02:06:30;;;;;;;5.90;4.03;;;;;;;-4.26;74.21;96556.81;5072972;28;20113;-64
2022/02/05 02:11:45;;;;;;;6.78;4.55;;;;;;;-4.15;74.10;96560.47;5094902;28;20036;-62
2022/02/05 02:17:18;;;;;;;8.68;4.80;;;;;;;-4.17;74.26;96572.34;5094689;28;20070;-62
2022/02/05 02:22:22;;;;;;;9.52;4.85;;;;;;;-4.14;74.11;96572.41;5093198;28;20055;-64
2022/02/05 02:30:06;;;;;;;6.00;4.22;;;;;;;-4.24;73.41;96590.94;5094561;28;20081;-63
2022/02/05 02:32:34;;;;;;;6.32;4.45;;;;;;;-4.39;73.61;96584.66;5094242;28;20040;-64
2022/02/05 02:35:08;;;;;;;14.32;7.72;;;;;;;-4.53;74.44;96581.78;5094147;28;20021;-64
2022/02/05 02:37:39;;;;;;;11.90;7.30;;;;;;;-4.57;75.57;96580.84;5094234;28;20085;-63
2022/02/05 02:40:19;;;;;;;10.80;6.25;;;;;;;-4.48;75.12;96579.34;5094270;28;20020;-63
2022/02/05 02:42:49;;;;;;;10.20;4.80;;;;;;;-4.41;74.55;96581.19;5094192;28;20016;-64
2022/02/05 02:45:14;;;;;;;8.90;5.57;;;;;;;-4.45;74.44;96589.63;5094098;28;20497;-63
2022/02/05 02:47:43;;;;;;;6.82;4.85;;;;;;;-4.44;74.35;96584.56;5094071;28;20264;-63
2022/02/05 02:50:28;;;;;;;8.75;5.57;;;;;;;-4.52;74.23;96587.78;5093958;28;20035;-63
2022/02/05 02:58:27;;;;;;;7.85;4.75;;;;;;;-4.67;74.84;96596.78;5094239;28;20039;-63
2022/02/05 03:00:58;;;;;;;7.93;4.35;;;;;;;-4.67;74.43;96599.34;5093934;28;20093;-63
2022/02/05 03:03:25;;;;;;;6.55;4.05;;;;;;;-4.75;74.36;96595.78;5093745;28;20062;-64
2022/02/05 03:05:51;;;;;;;7.88;4.80;;;;;;;-4.78;74.47;96583.81;5093857;28;20055;-63
2022/02/05 03:08:16;;;;;;;7.70;4.50;;;;;;;-4.81;75.03;96583.72;5093660;28;20420;-63
2022/02/05 03:10:42;;;;;;;8.88;5.82;;;;;;;-4.80;74.97;96579.47;5093642;28;20027;-63
2022/02/05 03:13:08;;;;;;;7.78;5.32;;;;;;;-4.82;75.14;96574.31;5093574;28;20034;-63
2022/02/05 03:15:41;;;;;;;5.68;4.82;;;;;;;-4.83;74.96;96577.72;5093640;28;20486;-63
2022/02/05 03:18:13;;;;;;;6.93;4.80;;;;;;;-4.83;74.74;96570.94;5093603;28;20060;-63
2022/02/05 03:20:38;;;;;;;7.53;5.07;;;;;;;-4.88;75.14;96576.75;5093627;28;20032;-64
2022/02/05 03:23:04;;;;;;;10.18;5.05;;;;;;;-4.99;75.07;96585.03;5093308;28;20097;-63
2022/02/05 03:25:31;;;;;;;9.68;5.22;;;;;;;-4.95;75.84;96576.63;5093355;28;20429;-64
2022/02/05 03:27:57;;;;;;;7.97;5.97;;;;;;;-4.93;75.80;96569.00;5093392;28;20013;-63
2022/02/05 03:30:24;;;;;;;8.00;5.45;;;;;;;-4.91;75.64;96567.31;5092557;28;20052;-64
2022/02/05 03:32:49;;;;;;;10.60;7.63;;;;;;;-5.03;76.12;96569.59;5093256;28;20032;-64
2022/02/05 03:35:15;;;;;;;10.95;6.60;;;;;;;-5.09;76.49;96572.88;5093232;28;20425;-63
2022/02/05 03:37:41;;;;;;;7.75;5.15;;;;;;;-5.05;76.51;96569.56;5093257;28;20040;-63
2022/02/05 03:40:08;;;;;;;8.25;5.07;;;;;;;-4.97;75.67;96569.75;5093165;28;20069;-63
2022/02/05 03:42:34;;;;;;;8.30;5.80;;;;;;;-4.98;75.53;96566.34;5093155;28;20028;-64
2022/02/05 03:45:00;;;;;;;8.35;5.65;;;;;;;-5.05;75.99;96566.13;5093205;28;20046;-63
2022/02/05 03:47:30;;;;;;;8.45;5.65;;;;;;;-5.11;76.66;96566.88;5093142;28;20466;-63
2022/02/05 03:49:56;;;;;;;;;;;;;;;-5.13;76.74;96573.59;5093630;28;20119;-63
2022/02/05 03:52:21;;;;;;;10.18;5.03;;;;;;;-5.08;76.45;96572.03;5093099;28;20010;-63
2022/02/05 03:54:47;;;;;;;7.72;4.65;;;;;;;-5.08;76.24;96574.59;5093132;28;20050;-63
2022/02/05 03:57:12;;;;;;;7.75;5.60;;;;;;;-5.13;76.24;96568.50;5093087;28;20056;-64
2022/02/05 03:59:38;;;;;;;8.43;4.97;;;;;;;-5.08;75.96;96567.78;5092991;28;20028;-63
2022/02/05 04:02:04;;;;;;;10.15;6.13;;;;;;;-5.07;75.82;96576.31;5092930;28;20494;-63
2022/02/05 04:04:30;;;;;;;7.78;5.25;;;;;;;-5.01;75.19;96575.59;5093105;28;20036;-64
2022/02/05 04:06:55;;;;;;;7.55;5.05;;;;;;;-5.02;75.13;96576.44;5093149;28;20024;-63
2022/02/05 04:09:27;;;;;;;14.50;5.47;;;;;;;-4.98;74.85;96574.00;5093016;28;20466;-62
2022/02/05 04:17:20;;;;;;;9.20;6.82;;;;;;;-5.15;75.43;96573.56;5093285;28;20457;-62
2022/02/05 04:19:45;;;;;;;9.93;6.05;;;;;;;-5.15;76.08;96581.22;5092925;28;20024;-64
2022/02/05 04:22:11;;;;;;;12.70;5.78;;;;;;;-5.12;76.12;96578.75;5092655;28;20067;-64
2022/02/05 04:24:36;;;;;;;7.15;4.70;;;;;;;-5.05;75.76;96578.91;5092782;28;20054;-63
2022/02/05 04:27:02;;;;;;;8.77;4.80;;;;;;;-5.08;75.42;96569.50;5092908;28;20031;-61
2022/02/05 04:29:28;;;;;;;8.50;5.28;;;;;;;-5.08;75.25;96569.50;5092835;28;20024;-62
2022/02/05 04:31:54;;;;;;;9.00;5.35;;;;;;;-5.09;75.16;96575.44;5092682;28;20024;-61
2022/02/05 04:34:19;;;;;;;10.38;5.53;;;;;;;-5.07;75.02;96578.88;5092791;28;20028;-62
2022/02/05 04:36:45;;;;;;;12.32;5.20;;;;;;;-5.10;74.91;96572.00;5092716;28;20031;-61
2022/02/05 04:39:14;;;;;;;10.02;6.18;;;;;;;-5.08;75.18;96578.00;5092671;28;20023;-62
2022/02/05 04:50:04;;;;;;;6.63;4.35;;;;;;;-5.16;75.11;96571.84;5096441;28;20020;-61
2022/02/05 04:52:39;;;;;;;9.50;5.93;;;;;;;-5.18;75.28;96577.75;5096074;28;20123;-62
2022/02/05 04:55:27;;;;;;;8.18;5.00;;;;;;;-5.25;75.32;96582.69;5096411;28;20073;-62
2022/02/05 05:03:10;;;;;;;9.25;5.00;;;;;;;-5.25;75.13;96579.28;5095997;28;20028;-64
2022/02/05 05:06:02;;;;;;;8.98;5.05;;;;;;;-5.35;74.84;96571.41;5096145;28;20115;-64
2022/02/05 05:11:22;;;;;;;7.93;4.47;;;;;;;-5.40;75.24;96570.41;5095861;28;20490;-63
2022/02/05 05:21:24;;;;;;;8.57;5.80;;;;;;;-5.53;75.74;96576.91;5095784;28;20075;-63
2022/02/05 05:23:49;;;;;;;8.65;5.82;;;;;;;-5.54;76.00;96570.06;5095485;28;20055;-64
2022/02/05 05:26:15;;;;;;;9.30;6.00;;;;;;;-5.48;76.43;96575.31;5095609;28;20028;-63
2022/02/05 05:28:41;;;;;;;8.57;6.53;;;;;;;-5.50;76.46;96565.91;5095476;28;20111;-63
2022/02/05 05:31:06;;;;;;;7.70;5.30;;;;;;;-5.45;76.57;96574.53;5095501;28;20016;-62
2022/02/05 05:33:32;;;;;;;10.38;6.03;;;;;;;-5.45;76.68;96580.50;5095493;28;20024;-63
2022/02/05 05:35:58;;;;;;;7.82;5.40;;;;;;;-5.45;77.04;96579.63;5095480;28;20046;-64
2022/02/05 05:38:23;;;;;;;8.85;5.82;;;;;;;-5.42;76.57;96574.59;5095502;28;20039;-64
2022/02/05 05:40:49;;;;;;;9.63;5.60;;;;;;;-5.36;76.20;96584.97;5095323;28;20078;-63
2022/02/05 05:43:26;;;;;;;9.70;6.30;;;;;;;-5.27;76.74;96586.03;5095524;28;20028;-64
2022/02/05 05:48:31;;;;;;;46.97;17.58;;;;;;;-5.22;76.26;96581.91;5095239;28;20478;-64
2022/02/05 05:50:59;;;;;;;21.85;8.23;;;;;;;-5.20;76.58;96591.31;5095089;28;20081;-62
2022/02/05 05:53:26;;;;;;;10.95;6.78;;;;;;;-5.14;76.38;96592.28;5094258;28;20047;-64
2022/02/05 05:55:52;;;;;;;9.02;5.57;;;;;;;-5.07;76.28;96591.63;5095301;28;20064;-62
2022/02/05 05:58:19;;;;;;;14.10;6.97;;;;;;;-5.05;76.18;96596.75;5095040;28;20048;-64
2022/02/05 06:00:47;;;;;;;10.27;6.65;;;;;;;-5.01;75.98;96588.34;5095014;28;20397;-62
2022/02/05 06:03:14;;;;;;;16.35;7.97;;;;;;;-4.90;75.82;96592.03;5094883;28;20107;-64
2022/02/05 06:05:39;;;;;;;26.10;10.93;;;;;;;-4.86;75.96;96606.59;5094899;28;20027;-63
2022/02/05 06:08:05;;;;;;;11.57;6.53;;;;;;;-4.65;75.89;96601.94;5094857;28;20025;-64
2022/02/05 06:10:32;;;;;;;17.00;8.38;;;;;;;-3.41;75.25;96606.16;5094830;28;20031;-63
2022/02/05 06:12:57;;;;;;;18.25;6.95;;;;;;;-1.53;70.15;96608.00;5094682;28;20430;-62
2022/02/05 06:15:23;;;;;;;8.05;3.88;;;;;;;0.35;61.80;96605.06;5094701;28;20074;-64
2022/02/05 06:17:51;;;;;;;4.05;3.50;;;;;;;2.04;55.90;96601.69;5094760;28;20036;-65
2022/02/05 06:20:16;;;;;;;5.53;3.50;;;;;;;3.51;52.00;96599.94;5094704;28;20020;-64
2022/02/05 06:22:42;;;;;;;5.57;3.80;;;;;;;5.00;47.75;96596.47;5094483;28;20048;-65
2022/02/05 06:25:08;;;;;;;6.53;4.13;;;;;;;6.38;44.46;96601.94;5094485;28;20154;-68
2022/02/05 06:27:34;;;;;;;5.05;3.60;;;;;;;7.54;41.99;96606.28;5094555;28;20076;-65
2022/02/05 06:29:59;;;;;;;6.20;4.40;;;;;;;8.72;39.48;96602.28;5094465;28;20434;-65
2022/02/05 06:32:25;;;;;;;10.07;6.22;;;;;;;9.81;37.96;96605.84;5094392;28;20588;-65
2022/02/05 06:34:51;;;;;;;10.63;6.50;;;;;;;10.79;36.15;96600.69;5094482;28;20024;-66
2022/02/05 06:37:18;;;;;;;10.75;7.05;;;;;;;11.51;34.32;96596.16;5094259;28;20020;-66
2022/02/05 06:39:44;;;;;;;5.80;4.82;;;;;;;12.36;32.40;96590.88;5094356;28;20054;-66
2022/02/05 06:42:10;;;;;;;4.25;3.53;;;;;;;12.73;31.46;96583.97;5094244;28;20085;-66
2022/02/05 06:44:36;;;;;;;3.83;3.00;;;;;;;13.30;30.64;96590.09;5094125;28;20429;-65
2022/02/05 06:47:01;;;;;;;3.72;3.15;;;;;;;13.83;29.94;96590.19;5094040;28;20482;-63
2022/02/05 06:49:30;;;;;;;5.05;3.35;;;;;;;14.35;29.58;96591.06;5093989;28;20090;-61
2022/02/05 06:51:55;;;;;;;3.50;3.20;;;;;;;14.92;28.82;96591.59;5093874;28;20073;-62
2022/02/05 06:54:21;;;;;;;3.83;3.35;;;;;;;15.60;28.13;96591.38;5093928;28;20024;-66
2022/02/05 06:56:46;;;;;;;3.65;3.25;;;;;;;16.26;27.12;96585.84;5094042;28;20016;-65
2022/02/05 06:59:12;;;;;;;4.30;3.47;;;;;;;16.77;26.75;96590.63;5093837;28;20031;-67
2022/02/05 07:01:37;;;;;;;6.05;2.92;;;;;;;17.32;26.13;96596.97;5093762;28;20020;-67
2022/02/05 07:04:05;;;;;;;4.25;2.90;;;;;;;17.98;25.29;96589.13;5093592;28;20036;-63
2022/02/05 07:06:31;;;;;;;3.58;2.70;;;;;;;18.43;24.52;96582.63;5093835;28;20115;-65
2022/02/05 07:08:56;;;;;;;3.17;2.88;;;;;;;18.33;24.21;96573.63;5093804;28;20020;-66
2022/02/05 07:11:22;;;;;;;4.13;3.00;;;;;;;18.71;24.31;96582.47;5093557;28;20047;-66
2022/02/05 07:13:49;;;;;;;2.80;2.38;;;;;;;19.48;23.52;96588.56;5093668;28;20119;-67
2022/02/05 07:16:24;;;;;;;3.40;3.10;;;;;;;20.26;22.64;96580.16;5093562;28;20016;-66
2022/02/05 07:19:16;;;;;;;5.15;3.00;;;;;;;20.42;22.54;96572.72;5093579;28;20032;-62
2022/02/05 07:21:47;;;;;;;4.75;2.95;;;;;;;20.62;22.17;96572.09;5093212;28;20044;-62
2022/02/05 07:24:50;;;;;;;3.97;3.03;;;;;;;20.48;21.62;96573.19;5093507;28;20068;-65
2022/02/05 07:29:42;;;;;;;4.35;3.92;;;;;;;20.08;22.62;96575.31;5093436;28;20062;-65
2022/02/05 07:32:08;;;;;;;5.95;5.10;;;;;;;20.14;22.21;96579.28;5093300;28;20023;-66
2022/02/05 07:34:37;;;;;;;6.38;5.18;;;;;;;20.10;22.78;96573.38;5093375;28;20038;-65
2022/02/05 07:37:03;;;;;;;5.18;4.68;;;;;;;20.91;21.92;96569.81;5093314;28;20051;-68
2022/02/05 07:39:33;;;;;;;4.45;4.05;;;;;;;21.71;21.21;96566.94;5093180;28;20027;-65
2022/02/05 07:42:01;;;;;;;8.25;4.53;;;;;;;21.45;20.92;96566.44;5093215;28;20059;-65
2022/02/05 07:44:26;;;;;;;4.78;4.28;;;;;;;21.29;21.24;96558.88;5093288;28;20020;-65
2022/02/05 07:46:53;;;;;;;6.18;4.60;;;;;;;21.70;20.92;96559.94;5093315;28;20068;-67
2022/02/05 07:49:23;;;;;;;5.68;5.07;;;;;;;21.33;21.24;96560.31;5093466;28;20032;-62
2022/02/05 07:51:49;;;;;;;6.70;5.70;;;;;;;21.70;21.18;96562.59;5093110;28;20028;-65
2022/02/05 07:54:15;;;;;;;5.07;4.47;;;;;;;21.77;20.85;96564.78;5092968;28;20028;-68
2022/02/05 07:56:47;;;;;;;5.45;4.57;;;;;;;21.80;20.24;96559.19;5093161;28;20052;-65
2022/02/05 07:59:13;;;;;;;7.97;4.95;;;;;;;21.92;20.10;96560.84;5093234;28;20087;-65
2022/02/05 08:01:39;;;;;;;7.35;6.10;;;;;;;21.82;19.99;96557.22;5093072;28;20529;-63
2022/02/05 08:04:05;;;;;;;8.35;5.32;;;;;;;21.00;20.34;96565.56;5092908;28;20115;-67
2022/02/05 08:06:32;;;;;;;6.50;5.68;;;;;;;19.57;21.73;96564.84;5093092;28;20017;-63
2022/02/05 08:09:01;;;;;;;8.35;4.75;;;;;;;18.20;24.11;96563.88;5093370;28;20111;-66
2022/02/05 08:11:38;;;;;;;5.28;4.78;;;;;;;17.01;25.50;96568.88;5092987;28;20020;-65
2022/02/05 08:14:08;;;;;;;5.85;4.90;;;;;;;16.22;27.22;96563.22;5092994;28;20085;-65
2022/02/05 08:19:05;;;;;;;8.88;7.28;;;;;;;18.49;24.08;96557.50;5096984;28;20028;-62
2022/02/05 08:21:30;;;;;;;12.55;8.50;;;;;;;18.33;22.04;96557.75;5096312;28;20194;-65
2022/02/05 08:23:56;;;;;;;17.15;11.32;;;;;;;16.91;24.60;96560.72;5097017;28;20039;-65
2022/02/05 08:26:27;;;;;;;15.90;11.18;;;;;;;15.82;26.46;96575.16;5096866;28;20102;-65
2022/02/05 08:28:54;;;;;;;20.17;10.40;;;;;;;15.49;27.55;96573.53;5096823;28;20028;-65
2022/02/05 08:31:21;;;;;;;14.38;7.60;;;;;;;15.00;26.74;96572.75;5096651;28;20024;-64
2022/02/05 08:33:47;;;;;;;10.30;7.32;;;;;;;14.51;27.88;96575.28;5096747;28;20488;-65
2022/02/05 08:36:13;;;;;;;11.55;7.22;;;;;;;13.82;28.54;96570.06;5096521;28;20477;-65
2022/02/05 08:38:39;;;;;;;12.85;7.07;;;;;;;13.04;29.83;96565.94;5096597;28;20030;-64
2022/02/05 08:41:04;;;;;;;10.07;6.18;;;;;;;12.51;30.78;96560.47;5096546;28;20023;-63
2022/02/05 08:43:30;;;;;;;9.85;5.90;;;;;;;11.68;33.28;96560.56;5096389;28;20020;-63
2022/02/05 08:45:59;;;;;;;13.07;5.57;;;;;;;11.40;34.50;96570.41;5096415;28;20043;-64
2022/02/05 08:48:26;;;;;;;8.95;5.80;;;;;;;10.82;33.70;96570.03;5096449;28;20031;-63
2022/02/05 08:50:52;;;;;;;10.88;5.13;;;;;;;10.42;35.78;96574.97;5096331;28;20024;-63
2022/02/05 08:53:21;;;;;;;9.50;5.22;;;;;;;10.06;35.53;96564.94;5096092;28;20051;-62
2022/02/05 08:55:48;;;;;;;9.38;5.65;;;;;;;10.15;35.42;96563.75;5096231;28;20024;-63
2022/02/05 08:58:14;;;;;;;13.30;6.05;;;;;;;10.11;37.52;96557.78;5096282;28;20162;-64
2022/02/05 09:00:55;;;;;;;9.52;5.47;;;;;;;10.02;36.95;96564.19;5096182;28;20103;-63
2022/02/05 09:03:36;;;;;;;9.52;5.60;;;;;;;9.78;35.29;96558.91;5096056;28;20032;-64
2022/02/05 09:06:02;;;;;;;8.20;5.60;;;;;;;9.66;36.27;96569.81;5096028;28;20059;-62
2022/02/05 09:08:33;;;;;;;7.32;4.88;;;;;;;9.64;36.52;96569.00;5095944;28;20469;-63
2022/02/05 09:11:08;;;;;;;8.45;5.47;;;;;;;9.67;36.33;96569.75;5096097;28;20024;-62
2022/02/05 09:13:50;;;;;;;7.25;5.00;;;;;;;9.82;37.84;96564.91;5094716;28;20486;-62
2022/02/05 09:16:16;;;;;;;7.18;4.95;;;;;;;9.97;36.03;96566.13;5095872;28;20367;-64
2022/02/05 09:18:44;;;;;;;7.85;4.80;;;;;;;9.85;37.97;96564.81;5095749;28;20039;-62
2022/02/05 09:21:10;;;;;;;10.20;5.10;;;;;;;9.74;36.87;96565.16;5095493;28;20031;-61
2022/02/05 09:23:40;;;;;;;5.63;4.55;;;;;;;9.92;36.89;96560.19;5095744;28;20031;-63
2022/02/05 09:26:11;;;;;;;7.88;5.10;;;;;;;10.04;36.05;96553.69;5095788;28;20039;-64
2022/02/05 09:28:36;;;;;;;6.75;4.90;;;;;;;9.95;35.88;96557.47;5095737;28;20056;-64
2022/02/05 09:33:36;;;;;;;6.93;5.03;;;;;;;9.90;37.06;96554.19;5095722;28;20496;-64
2022/02/05 09:36:02;;;;;;;6.35;4.88;;;;;;;9.99;36.49;96551.22;5095507;28;20016;-62
2022/02/05 09:38:28;;;;;;;6.65;4.50;;;;;;;10.11;35.85;96545.56;5095542;28;20473;-64
2022/02/05 09:40:53;;;;;;;6.25;3.92;;;;;;;10.14;35.13;96541.16;5095400;28;20036;-63
2022/02/05 09:43:24;;;;;;;6.63;4.13;;;;;;;10.06;34.28;96538.81;5095648;28;20020;-62
2022/02/05 09:45:50;;;;;;;6.68;4.35;;;;;;;9.76;36.68;96534.63;5095182;28;20436;-63
2022/02/05 09:48:18;;;;;;;7.45;4.85;;;;;;;9.79;35.63;96531.91;5095286;28;20158;-62
2022/02/05 09:50:44;;;;;;;7.38;4.55;;;;;;;10.04;35.81;96524.94;5095352;28;20061;-62
2022/02/05 09:53:18;;;;;;;7.45;4.93;;;;;;;10.02;35.59;96526.78;5095177;28;20487;-62
2022/02/05 09:55:46;;;;;;;5.72;4.20;;;;;;;10.04;35.29;96527.56;5095450;28;20032;-63
2022/02/05 09:58:13;;;;;;;6.57;4.35;;;;;;;10.17;34.68;96520.13;5094900;28;20036;-63
2022/02/05 10:00:39;;;;;;;4.68;3.83;;;;;;;10.05;37.11;96524.06;5095052;28;20020;-63
2022/02/05 10:03:25;;;;;;;7.15;4.32;;;;;;;10.29;35.91;96521.44;5095163;28;20047;-63
2022/02/05 10:06:14;;;;;;;6.03;4.32;;;;;;;10.21;36.44;96519.09;5094923;28;20036;-62
2022/02/05 10:08:46;;;;;;;5.05;4.03;;;;;;;10.17;36.90;96522.75;5094715;28;20025;-62
2022/02/05 10:11:12;;;;;;;4.82;3.90;;;;;;;10.25;36.48;96523.31;5094743;28;20119;-62
2022/02/05 10:13:38;;;;;;;5.55;4.10;;;;;;;10.35;36.19;96522.06;5093408;28;20394;-63
2022/02/05 10:16:04;;;;;;;5.72;4.03;;;;;;;10.39;36.01;96520.19;5094800;28;20115;-63
2022/02/05 10:18:32;;;;;;;6.90;4.22;;;;;;;10.11;35.58;96518.56;5094793;28;20351;-63
2022/02/05 10:21:18;;;;;;;6.50;3.42;;;;;;;10.02;36.48;96517.16;5093175;28;20020;-63
2022/02/05 10:23:55;;;;;;;6.75;3.78;;;;;;;10.06;36.44;96516.13;5094480;28;20485;-63
2022/02/05 10:26:31;;;;;;;5.15;3.42;;;;;;;10.04;35.47;96510.13;5094548;28;20024;-63
2022/02/05 10:29:02;;;;;;;6.28;3.35;;;;;;;9.98;36.86;96499.88;5094605;28;20027;-63
2022/02/05 10:31:29;;;;;;;8.93;3.75;;;;;;;10.07;35.78;96498.69;5094425;28;20046;-63
2022/02/05 10:34:11;;;;;;;5.38;3.65;;;;;;;10.23;36.15;96499.84;5094467;28;20027;-62
2022/02/05 10:36:41;;;;;;;6.05;3.50;;;;;;;10.01;34.83;96497.16;5093037;28;20024;-63
2022/02/05 10:44:35;;;;;;;8.45;4.07;;;;;;;10.56;36.42;96509.09;5094270;28;20043;-64
2022/02/05 10:47:00;;;;;;;4.65;3.53;;;;;;;10.65;35.56;96499.22;5094178;28;20020;-63
2022/02/05 10:49:48;;;;;;;4.97;3.40;;;;;;;10.53;34.56;96488.28;5094166;28;20027;-63
2022/02/05 10:52:33;;;;;;;6.60;2.83;;;;;;;10.45;36.38;96487.72;5094024;28;20031;-62
2022/02/05 10:55:13;;;;;;;6.10;3.33;;;;;;;10.53;36.70;96483.06;5093958;28;20471;-62
2022/02/05 11:05:47;;;;;;;6.75;3.97;;;;;;;10.29;37.33;96469.16;5094325;28;20485;-62
2022/02/05 11:08:13;;;;;;;4.78;3.55;;;;;;;10.24;37.42;96464.09;5093739;28;20436;-62
2022/02/05 11:13:29;;;;;;;6.25;3.67;;;;;;;10.51;36.43;96457.88;5093612;28;20106;-63
2022/02/05 11:18:39;;;;;;;9.90;4.25;;;;;;;10.40;37.59;96458.25;5093734;28;20082;-62
2022/02/05 11:21:06;;;;;;;5.18;3.90;;;;;;;10.35;38.39;96456.69;5093334;28;20118;-63
2022/02/05 11:23:35;;;;;;;6.13;4.43;;;;;;;10.43;39.39;96464.25;5093506;28;20020;-63
2022/02/05 11:26:02;;;;;;;8.50;4.60;;;;;;;10.42;38.84;96466.91;5093420;28;20065;-62
2022/02/05 11:28:50;;;;;;;8.02;4.60;;;;;;;10.43;39.36;96460.75;5093447;28;20024;-62
2022/02/05 11:31:32;;;;;;;14.23;6.60;;;;;;;10.35;39.86;96453.22;5093427;28;20024;-62
2022/02/05 11:34:14;;;;;;;8.00;5.32;;;;;;;10.30;39.57;96456.00;5093416;28;20071;-63
2022/02/05 11:36:44;;;;;;;7.05;4.30;;;;;;;10.21;39.17;96445.91;5093718;28;20024;-63
2022/02/05 11:39:16;;;;;;;10.30;4.47;;;;;;;10.39;39.96;96448.72;5093423;28;20024;-61
2022/02/05 11:41:44;;;;;;;8.50;4.70;;;;;;;10.45;40.21;96443.25;5093593;28;20051;-62
2022/02/05 11:44:17;;;;;;;6.47;4.65;;;;;;;10.53;38.89;96435.97;5093373;28;20055;-63
2022/02/05 11:47:18;;;;;;;8.57;4.68;;;;;;;10.54;39.42;96439.47;5093394;28;20031;-63
2022/02/05 11:49:53;;;;;;;;;;;;;;;10.60;41.70;96434.81;5051385;28;20502;-63
2022/02/05 11:52:42;;;;;;;9.10;5.60;;;;;;;10.51;41.17;96440.44;5086037;28;19918;-62
2022/02/05 11:55:27;;;;;;;9.90;5.50;;;;;;;10.53;41.57;96443.00;5093213;28;20055;-62
2022/02/05 11:58:01;;;;;;;12.13;5.75;;;;;;;10.52;40.81;96442.13;5093122;28;20035;-63
2022/02/05 12:00:36;;;;;;;8.02;6.63;;;;;;;10.45;42.20;96453.72;5093107;28;20177;-62
2022/02/05 12:03:27;;;;;;;6.72;5.13;;;;;;;10.36;41.75;96447.09;5092952;28;20067;-62
2022/02/05 12:05:59;;;;;;;6.60;5.10;;;;;;;10.42;42.32;96446.81;5093022;28;20032;-63
2022/02/05 12:08:36;;;;;;;9.02;5.65;;;;;;;10.41;42.45;96442.50;5093035;28;20370;-62
2022/02/05 12:11:30;;;;;;;7.90;5.90;;;;;;;10.38;42.63;96437.41;5092967;28;20047;-63
2022/02/05 12:14:10;;;;;;;11.18;5.75;;;;;;;10.28;42.57;96438.66;5092956;28;20047;-62
2022/02/05 12:16:37;;;;;;;7.93;5.75;;;;;;;10.31;41.94;96438.56;5092923;28;20030;-63
2022/02/05 12:19:17;;;;;;;11.57;5.70;;;;;;;10.27;42.82;96439.59;5092937;28;20040;-63
2022/02/05 12:22:01;;;;;;;8.93;5.68;;;;;;;10.28;42.88;96436.06;5091560;28;20064;-63
2022/02/05 12:24:37;;;;;;;7.72;5.63;;;;;;;10.25;43.20;96431.81;5092886;28;20486;-63
2022/02/05 12:27:31;;;;;;;14.20;9.10;;;;;;;10.29;43.48;96429.94;5092948;28;20393;-62
2022/02/05 12:30:38;;;;;;;7.72;5.90;;;;;;;10.06;43.12;96429.03;5092879;28;20028;-62
2022/02/05 12:33:05;;;;;;;11.07;6.65;;;;;;;10.08;43.32;96432.44;5092491;28;20355;-63
2022/02/05 12:35:33;;;;;;;7.45;5.45;;;;;;;10.12;43.09;96420.97;5092773;28;20082;-62
2022/02/05 12:38:03;;;;;;;7.80;6.20;;;;;;;10.09;43.26;96432.38;5092698;28;20024;-62
2022/02/05 12:40:30;;;;;;;11.85;6.38;;;;;;;10.07;43.67;96425.50;5092737;28;20065;-63
2022/02/05 12:42:57;;;;;;;11.57;6.63;;;;;;;10.07;44.14;96418.53;5092758;28;20070;-62
2022/02/05 12:45:50;;;;;;;9.50;6.40;;;;;;;10.05;44.08;96427.34;5092680;28;20051;-63
2022/02/05 12:48:22;;;;;;;16.52;6.32;;;;;;;10.08;44.27;96425.47;5092733;28;20107;-62
2022/02/05 12:50:49;;;;;;;8.48;5.50;;;;;;;10.14;43.83;96420.94;5092753;28;20036;-62
2022/02/05 12:53:15;;;;;;;11.32;6.10;;;;;;;10.13;43.75;96419.19;5092470;28;20024;-63
2022/02/05 12:55:46;;;;;;;7.55;5.57;;;;;;;10.21;43.78;96431.06;5092644;28;20039;-63
2022/02/05 12:58:17;;;;;;;11.48;6.88;;;;;;;10.21;44.10;96420.59;5092600;28;20110;-62
2022/02/05 13:00:42;;;;;;;;;;;;;;;10.14;43.04;96421.75;5093020;28;20040;-62
2022/02/05 13:03:27;;;;;;;8.30;5.85;;;;;;;10.09;44.45;96421.09;5094342;28;20285;-63
2022/02/05 13:05:53;;;;;;;11.68;6.05;;;;;;;10.14;43.52;96429.59;5096185;28;20050;-63
2022/02/05 13:08:19;;;;;;;8.45;6.03;;;;;;;10.12;44.20;96431.44;5096225;28;20028;-63
2022/02/05 13:10:46;;;;;;;9.00;5.95;;;;;;;10.10;43.79;96435.84;5095953;28;20028;-63
2022/02/05 13:13:13;;;;;;;9.25;5.90;;;;;;;10.04;44.23;96431.72;5095703;28;20435;-63
2022/02/05 13:15:39;;;;;;;9.65;5.43;;;;;;;10.09;43.72;96442.00;5095818;28;20103;-63
2022/02/05 13:33:43;;;;;;;8.00;5.70;;;;;;;9.93;44.24;96434.72;5095577;28;20031;-63
2022/02/05 13:39:07;;;;;;;7.82;5.10;;;;;;;9.79;43.86;96429.16;5095470;28;20386;-63
2022/02/05 13:41:44;;;;;;;7.20;4.93;;;;;;;9.82;43.37;96434.28;5095566;28;20028;-63
2022/02/05 13:44:22;;;;;;;11.98;5.57;;;;;;;9.85;42.98;96427.16;5095386;28;20035;-62
2022/02/05 13:47:03;;;;;;;;;;;;;;;9.84;44.01;96429.81;5095877;28;20462;-64
2022/02/05 13:49:29;;;;;;;18.17;9.50;;;;;;;9.84;43.95;96422.84;5095352;28;19965;-63
2022/02/05 13:51:56;;;;;;;12.82;7.25;;;;;;;9.84;44.00;96428.09;5095240;28;20028;-63
2022/02/05 13:54:33;;;;;;;19.77;10.38;;;;;;;9.88;44.17;96428.84;5095273;28;20027;-63
2022/02/05 13:57:06;;;;;;;18.50;9.50;;;;;;;9.86;44.43;96428.88;5095186;28;20111;-63
2022/02/05 13:59:34;;;;;;;18.63;10.43;;;;;;;9.91;44.37;96440.91;5093913;28;20389;-63
2022/02/05 14:02:20;;;;;;;14.65;9.00;;;;;;;9.87;44.71;96445.41;5094866;28;20032;-63
2022/02/05 14:05:09;;;;;;;18.65;10.20;;;;;;;9.87;44.59;96445.41;5094924;28;20034;-63
2022/02/05 14:07:42;;;;;;;10.30;6.50;;;;;;;9.87;44.45;96445.41;5094772;28;20043;-63
2022/02/05 14:10:16;;;;;;;9.70;6.47;;;;;;;9.80;44.64;96444.78;5094874;28;20024;-64
2022/02/05 14:12:54;;;;;;;11.10;6.18;;;;;;;9.80;44.26;96443.91;5094717;28;20028;-63
2022/02/05 14:15:22;;;;;;;10.77;6.22;;;;;;;9.77;44.46;96449.25;5093808;28;20020;-63
2022/02/05 14:18:02;;;;;;;8.82;6.15;;;;;;;9.76;44.47;96443.19;5094596;28;20073;-63
2022/02/05 14:20:30;;;;;;;8.40;6.45;;;;;;;9.76;44.31;96447.56;5094708;28;20359;-62
2022/02/05 14:23:05;;;;;;;16.95;7.53;;;;;;;9.71;44.85;96448.59;5094511;28;20101;-63
2022/02/05 14:25:35;;;;;;;12.48;8.77;;;;;;;9.68;44.70;96453.91;5094550;28;20052;-64
2022/02/05 14:28:14;;;;;;;14.25;9.02;;;;;;;9.63;44.87;96450.59;5094482;28;20093;-63